Time;durP1;ratioP1;P1;durP2;ratioP2;P2;SDS_P1;SDS_P2;PMS_P1;PMS_P2;Temp;Humidity;BMP_temperature;BMP_pressure;BME280_temperature;BME280_humidity;BME280_pressure;Samples;Min_cycle;Max_cycle;Signal;HPM_P1;HPM_P2
2022/10/10 00:01:31;;;;;;;90.47;72.72;;;17.90;87.40;;;;;;5037525;28;20191;-69
2022/10/10 00:03:57;;;;;;;94.43;76.10;;;17.90;87.40;;;;;;5054004;28;20194;-69
2022/10/10 00:06:23;;;;;;;92.93;74.97;;;17.90;87.40;;;;;;5054394;28;20221;-68
2022/10/10 00:08:50;;;;;;;89.40;72.82;;;17.90;87.50;;;;;;5053959;28;20313;-70
2022/10/10 00:11:18;;;;;;;89.60;72.47;;;17.90;87.60;;;;;;5037578;28;20206;-69
2022/10/10 00:13:45;;;;;;;86.78;69.55;;;17.90;87.50;;;;;;5053885;28;20187;-70
2022/10/10 00:16:11;;;;;;;86.85;71.70;;;17.90;87.50;;;;;;5053998;28;20585;-69
2022/10/10 00:18:39;;;;;;;84.75;69.93;;;17.90;87.60;;;;;;5054386;28;20193;-69
2022/10/10 00:21:06;;;;;;;79.05;66.95;;;17.90;87.50;;;;;;5037671;28;20211;-69
2022/10/10 00:23:32;;;;;;;88.53;71.18;;;17.90;87.50;;;;;;5037162;28;20194;-69
2022/10/10 00:25:59;;;;;;;85.13;68.72;;;17.90;87.80;;;;;;5048340;28;20803;-68
2022/10/10 00:28:25;;;;;;;83.70;68.43;;;17.90;87.70;;;;;;5040341;28;20210;-70
2022/10/10 00:30:50;;;;;;;83.68;67.18;;;17.90;88.40;;;;;;5023971;28;20305;-70
2022/10/10 00:33:16;;;;;;;84.22;68.57;;;17.90;87.70;;;;;;5024072;28;20277;-68
2022/10/10 00:35:42;;;;;;;82.45;67.18;;;17.90;87.60;;;;;;5058432;28;20210;-68
2022/10/10 00:38:09;;;;;;;85.35;68.95;;;17.90;87.70;;;;;;5024083;28;20202;-69
2022/10/10 00:40:43;;;;;;;84.05;68.72;;;17.90;87.70;;;;;;5078737;22;20225;-66
2022/10/10 00:43:12;;;;;;;84.45;67.38;;;17.90;87.70;;;;;;5059905;28;20201;-66
2022/10/10 00:45:41;;;;;;;81.05;64.30;;;17.90;87.60;;;;;;5076930;28;20185;-66
2022/10/10 00:48:23;;;;;;;83.70;66.47;;;17.90;87.60;;;;;;5077247;28;20217;-67
2022/10/10 00:50:57;;;;;;;80.25;65.38;;;17.90;87.80;;;;;;5077357;28;20248;-66
2022/10/10 00:53:32;;;;;;;80.30;64.55;;;17.90;87.80;;;;;;5060101;28;20593;-67
2022/10/10 00:55:59;;;;;;;81.13;65.05;;;17.90;87.70;;;;;;5071930;28;20234;-66
2022/10/10 00:58:25;;;;;;;78.47;63.42;;;17.90;87.80;;;;;;5097506;28;20177;-66
2022/10/10 01:00:53;;;;;;;78.18;63.35;;;17.90;87.80;;;;;;5080020;28;20209;-66
2022/10/10 01:03:19;;;;;;;75.93;61.25;;;17.90;87.80;;;;;;5080265;28;20180;-66
2022/10/10 01:05:46;;;;;;;78.35;63.08;;;17.90;87.80;;;;;;5097352;28;20169;-64
2022/10/10 01:08:13;;;;;;;78.72;62.63;;;17.90;87.80;;;;;;5095098;28;20600;-66
2022/10/10 01:10:58;;;;;;;75.30;59.65;;;17.90;87.80;;;;;;5094254;28;20262;-66
2022/10/10 01:13:36;;;;;;;73.47;60.40;;;17.90;87.80;;;;;;5076923;28;20192;-66
2022/10/10 01:16:24;;;;;;;78.30;62.75;;;17.90;87.80;;;;;;5077050;28;20220;-67
2022/10/10 01:19:04;;;;;;;80.43;62.20;;;17.90;87.90;;;;;;5074815;28;20647;-66
2022/10/10 01:22:19;;;;;;;72.05;59.83;;;17.90;87.70;;;;;;5090714;28;20218;-66
2022/10/10 01:25:19;;;;;;;75.63;60.15;;;17.90;87.90;;;;;;5055948;28;20202;-66
2022/10/10 01:28:11;;;;;;;74.10;59.70;;;17.90;87.90;;;;;;5093572;28;20575;-67
2022/10/10 01:30:40;;;;;;;80.32;64.30;;;17.90;87.90;;;;;;5093678;28;20208;-67
2022/10/10 01:33:15;;;;;;;77.20;61.90;;;17.90;87.80;;;;;;5076412;28;20209;-67
2022/10/10 01:36:02;;;;;;;77.97;61.28;;;17.90;87.80;;;;;;5076443;28;20651;-67
2022/10/10 01:38:41;;;;;;;71.13;57.35;;;17.90;88.00;;;;;;5076667;28;20177;-65
2022/10/10 01:41:37;;;;;;;71.60;57.53;;;17.90;88.00;;;;;;5093495;28;20238;-66
2022/10/10 01:44:03;;;;;;;71.57;58.97;;;17.90;87.80;;;;;;5076362;28;20173;-67
2022/10/10 01:46:32;;;;;;;72.00;57.97;;;17.90;88.50;;;;;;5094539;28;20177;-67
2022/10/10 01:49:00;;;;;;;72.13;58.03;;;17.90;87.70;;;;;;5076421;28;20258;-67
2022/10/10 01:51:59;;;;;;;69.80;58.40;;;17.90;87.80;;;;;;5076353;28;20576;-67
2022/10/10 01:54:59;;;;;;;67.22;55.08;;;17.90;87.80;;;;;;5094326;28;20242;-67
2022/10/10 01:57:52;;;;;;;64.82;53.75;;;17.90;87.80;;;;;;5083230;28;20202;-67
2022/10/10 02:00:18;;;;;;;67.68;53.08;;;17.90;87.80;;;;;;5093018;28;20204;-67
2022/10/10 02:03:00;;;;;;;68.15;56.20;;;17.90;87.80;;;;;;5092901;28;20233;-66
2022/10/10 02:05:40;;;;;;;70.63;57.70;;;17.90;87.80;;;;;;5092884;28;20179;-66
2022/10/10 02:08:19;;;;;;;67.05;55.08;;;17.90;88.00;;;;;;5092866;28;20196;-67
2022/10/10 02:10:55;;;;;;;63.40;52.33;;;17.90;88.00;;;;;;5075901;28;20211;-66
2022/10/10 02:13:28;;;;;;;63.45;52.85;;;17.90;88.00;;;;;;5075640;28;20268;-67
2022/10/10 02:15:58;;;;;;;67.07;52.75;;;17.90;87.90;;;;;;5075819;28;20173;-67
2022/10/10 02:18:29;;;;;;;64.10;53.42;;;17.90;87.90;;;;;;5092353;28;20189;-66
2022/10/10 02:20:57;;;;;;;64.60;52.28;;;17.90;88.00;;;;;;5066738;28;20202;-66
2022/10/10 02:23:23;;;;;;;64.20;52.95;;;17.90;87.80;;;;;;5088694;28;20216;-67
2022/10/10 02:25:54;;;;;;;63.40;52.70;;;17.90;87.80;;;;;;5091947;28;20185;-67
2022/10/10 02:28:30;;;;;;;62.08;51.33;;;17.90;87.90;;;;;;5075690;28;20208;-66
2022/10/10 02:31:03;;;;;;;64.07;52.72;;;17.90;87.90;;;;;;5092709;28;20299;-67
2022/10/10 02:34:05;;;;;;;64.43;52.63;;;17.90;87.80;;;;;;5092394;28;20172;-67
2022/10/10 02:36:31;;;;;;;60.05;49.55;;;17.90;87.90;;;;;;5092412;28;20241;-67
2022/10/10 02:38:58;;;;;;;57.58;48.90;;;17.90;87.90;;;;;;5092210;28;20188;-67
2022/10/10 02:41:26;;;;;;;57.80;47.05;;;17.90;87.90;;;;;;5075182;28;20304;-66
2022/10/10 02:43:53;;;;;;;61.13;49.22;;;17.90;88.00;;;;;;5108981;28;20181;-66
2022/10/10 02:46:19;;;;;;;59.38;49.45;;;17.90;87.90;;;;;;5075452;28;20177;-67
2022/10/10 02:48:45;;;;;;;59.83;50.53;;;17.90;87.90;;;;;;5075073;28;20212;-66
2022/10/10 02:51:14;;;;;;;59.97;49.60;;;17.90;88.00;;;;;;5075372;28;20204;-67
2022/10/10 02:53:39;;;;;;;62.83;49.72;;;17.90;88.00;;;;;;5108843;28;20213;-66
2022/10/10 02:56:06;;;;;;;58.80;48.75;;;17.90;88.00;;;;;;5091975;28;20173;-65
2022/10/10 02:58:31;;;;;;;58.28;48.33;;;17.90;87.90;;;;;;5108980;28;20177;-67
2022/10/10 03:00:57;;;;;;;58.92;47.65;;;17.90;87.90;;;;;;5093396;28;20623;-67
2022/10/10 03:03:24;;;;;;;57.88;48.92;;;17.90;87.80;;;;;;5092808;28;20230;-65
2022/10/10 03:05:50;;;;;;;56.83;48.78;;;17.90;87.90;;;;;;5075176;28;20181;-66
2022/10/10 03:08:16;;;;;;;55.92;47.67;;;17.90;87.80;;;;;;5091726;28;20216;-66
2022/10/10 03:10:53;;;;;;;56.78;47.72;;;17.90;87.80;;;;;;5074873;28;20200;-67
2022/10/10 03:13:20;;;;;;;58.20;48.22;;;17.90;87.80;;;;;;5108576;28;20179;-66
2022/10/10 03:15:45;;;;;;;53.75;46.00;;;17.90;88.00;;;;;;5091976;28;20189;-65
2022/10/10 03:18:11;;;;;;;56.08;46.08;;;17.80;87.90;;;;;;5074739;28;20184;-66
2022/10/10 03:20:37;;;;;;;57.10;47.03;;;17.90;87.80;;;;;;5091849;28;20213;-67
2022/10/10 03:23:02;;;;;;;53.63;45.33;;;17.90;88.00;;;;;;5074583;28;20200;-66
2022/10/10 03:25:28;;;;;;;51.70;43.75;;;17.90;88.00;;;;;;5091707;28;20177;-67
2022/10/10 03:27:54;;;;;;;52.63;44.97;;;17.90;87.80;;;;;;5074409;28;20205;-66
2022/10/10 03:30:19;;;;;;;57.40;45.30;;;17.90;87.90;;;;;;5073883;28;20208;-66
2022/10/10 03:32:45;;;;;;;52.65;43.78;;;17.90;88.00;;;;;;5074230;28;20188;-67
2022/10/10 03:35:11;;;;;;;53.85;44.08;;;17.90;87.90;;;;;;5091369;28;20553;-66
2022/10/10 03:37:37;;;;;;;49.70;42.53;;;17.90;88.00;;;;;;5092456;28;20234;-67
2022/10/10 03:40:03;;;;;;;55.67;44.67;;;17.90;87.90;;;;;;5074159;28;20213;-67
2022/10/10 03:42:28;;;;;;;50.75;43.20;;;17.90;87.80;;;;;;5074590;28;20189;-66
2022/10/10 03:44:54;;;;;;;50.88;43.10;;;17.90;88.00;;;;;;5074445;28;20177;-67
2022/10/10 03:47:20;;;;;;;51.85;43.30;;;17.90;88.00;;;;;;5074240;28;20684;-67
2022/10/10 03:49:45;;;;;;;48.78;40.47;;;17.90;87.90;;;;;;5074243;28;20205;-67
2022/10/10 03:52:11;;;;;;;51.38;42.95;;;17.80;87.70;;;;;;5108183;28;20181;-67
2022/10/10 03:54:37;;;;;;;50.42;42.78;;;17.90;87.90;;;;;;5072259;28;20188;-66
2022/10/10 03:57:03;;;;;;;47.97;42.38;;;17.80;87.80;;;;;;5070885;28;20196;-66
2022/10/10 03:59:28;;;;;;;49.85;41.53;;;17.90;88.00;;;;;;5054337;28;20181;-65
2022/10/10 04:01:54;;;;;;;49.35;41.13;;;17.90;88.00;;;;;;5071087;28;20182;-66
2022/10/10 04:04:20;;;;;;;49.05;41.92;;;17.80;87.80;;;;;;5071009;28;20190;-66
2022/10/10 04:06:46;;;;;;;47.83;40.95;;;17.90;87.80;;;;;;5070890;28;20197;-66
2022/10/10 04:09:11;;;;;;;46.97;41.75;;;17.80;87.70;;;;;;5070629;28;20216;-67
2022/10/10 04:11:39;;;;;;;49.00;42.10;;;17.90;87.80;;;;;;5070546;28;20206;-66
2022/10/10 04:14:05;;;;;;;46.47;40.65;;;17.90;87.90;;;;;;5070831;28;20178;-66
2022/10/10 04:16:31;;;;;;;46.83;40.05;;;17.90;87.80;;;;;;5054381;28;20224;-66
2022/10/10 04:18:57;;;;;;;45.15;39.00;;;17.80;87.60;;;;;;5054209;28;20181;-66
2022/10/10 04:21:22;;;;;;;46.90;39.33;;;17.80;87.70;;;;;;5070902;28;20681;-66
2022/10/10 04:23:48;;;;;;;44.40;38.58;;;17.90;87.80;;;;;;5070565;28;20228;-66
2022/10/10 04:26:14;;;;;;;44.13;38.20;;;17.80;87.60;;;;;;5084472;28;20189;-66
2022/10/10 04:28:40;;;;;;;44.67;38.17;;;17.80;87.80;;;;;;5090986;28;20212;-66
2022/10/10 04:31:05;;;;;;;41.80;37.25;;;17.80;87.80;;;;;;5092037;28;20193;-66
2022/10/10 04:33:31;;;;;;;42.08;36.80;;;17.80;87.70;;;;;;5073639;28;20181;-67
2022/10/10 04:35:57;;;;;;;43.35;37.28;;;17.80;87.70;;;;;;5090736;28;20207;-67
2022/10/10 04:38:23;;;;;;;42.03;36.28;;;17.80;87.70;;;;;;5086286;28;20271;-66
2022/10/10 04:40:49;;;;;;;39.25;34.17;;;17.80;87.60;;;;;;5087315;28;20278;-65
2022/10/10 04:43:16;;;;;;;42.35;36.72;;;17.80;87.70;;;;;;5073295;28;20189;-66
2022/10/10 04:45:42;;;;;;;44.72;37.58;;;17.80;87.60;;;;;;5074612;28;20205;-65
2022/10/10 04:48:07;;;;;;;42.97;37.17;;;17.80;87.60;;;;;;5074376;28;20229;-67
2022/10/10 04:50:33;;;;;;;41.08;36.55;;;17.80;87.50;;;;;;5073986;28;20208;-67
2022/10/10 04:52:59;;;;;;;41.00;34.95;;;17.80;87.60;;;;;;5057133;28;20187;-65
2022/10/10 04:55:26;;;;;;;39.72;34.20;;;17.80;87.50;;;;;;5060815;28;20182;-65
2022/10/10 04:57:51;;;;;;;38.78;34.35;;;17.80;87.40;;;;;;5093049;28;20193;-66
2022/10/10 05:00:17;;;;;;;38.90;34.33;;;17.80;87.50;;;;;;5077222;28;20216;-66
2022/10/10 05:02:43;;;;;;;39.25;33.60;;;17.80;87.50;;;;;;5094571;28;20193;-66
2022/10/10 05:05:09;;;;;;;38.45;33.85;;;17.80;87.40;;;;;;5077002;28;20185;-67
2022/10/10 05:07:35;;;;;;;40.00;34.45;;;17.80;87.40;;;;;;5111039;28;20235;-67
2022/10/10 05:10:01;;;;;;;39.40;34.17;;;17.80;87.30;;;;;;5094183;28;20201;-68
2022/10/10 05:12:27;;;;;;;36.58;32.10;;;17.80;87.30;;;;;;5095233;28;20187;-67
2022/10/10 05:14:52;;;;;;;38.75;33.40;;;17.80;87.30;;;;;;5093966;28;20557;-67
2022/10/10 05:17:18;;;;;;;34.72;30.80;;;17.80;87.30;;;;;;5076872;28;20192;-65
2022/10/10 05:19:44;;;;;;;36.13;31.17;;;17.80;87.30;;;;;;5093381;28;20245;-67
2022/10/10 05:22:10;;;;;;;34.22;30.13;;;17.80;87.30;;;;;;5093213;28;20184;-66
2022/10/10 05:24:35;;;;;;;34.65;30.67;;;17.80;87.40;;;;;;5074704;28;20185;-67
2022/10/10 05:27:01;;;;;;;34.33;30.42;;;17.80;87.30;;;;;;5091203;28;20181;-67
2022/10/10 05:29:27;;;;;;;35.58;30.80;;;17.80;87.40;;;;;;5067696;28;20212;-67
2022/10/10 05:31:53;;;;;;;32.30;28.65;;;17.80;87.40;;;;;;5098260;28;20216;-69
2022/10/10 05:34:18;;;;;;;32.78;28.23;;;17.80;87.30;;;;;;5093585;28;20181;-67
2022/10/10 05:36:44;;;;;;;31.58;28.08;;;17.80;87.30;;;;;;5061470;28;20187;-67
2022/10/10 05:39:10;;;;;;;33.55;29.90;;;17.80;87.40;;;;;;5056692;28;20178;-67
2022/10/10 05:41:35;;;;;;;33.53;28.52;;;17.80;87.20;;;;;;5071114;28;20212;-67
2022/10/10 05:44:01;;;;;;;35.05;30.00;;;17.80;87.30;;;;;;5056277;28;20182;-67
2022/10/10 05:46:27;;;;;;;34.28;29.17;;;17.80;87.30;;;;;;5056320;28;20197;-67
2022/10/10 05:48:53;;;;;;;33.28;28.23;;;17.80;87.30;;;;;;5073237;28;20220;-66
2022/10/10 05:51:20;;;;;;;33.38;29.52;;;17.80;87.40;;;;;;5069259;28;20271;-67
2022/10/10 05:53:47;;;;;;;32.45;27.90;;;17.80;87.30;;;;;;5052004;28;20225;-67
2022/10/10 05:56:15;;;;;;;31.35;27.95;;;17.80;87.30;;;;;;5053641;28;20300;-66
2022/10/10 05:58:42;;;;;;;30.98;27.60;;;17.80;87.30;;;;;;5053111;28;20187;-67
2022/10/10 06:01:08;;;;;;;31.92;27.40;;;17.80;87.20;;;;;;5052943;28;20207;-67
2022/10/10 06:03:34;;;;;;;29.65;26.38;;;17.80;87.20;;;;;;5052531;28;20190;-67
2022/10/10 06:06:01;;;;;;;31.92;27.38;;;17.80;87.20;;;;;;5053843;28;20182;-66
2022/10/10 06:08:29;;;;;;;29.45;26.20;;;17.80;87.20;;;;;;5052530;28;20221;-67
2022/10/10 06:11:06;;;;;;;30.15;26.17;;;17.80;87.30;;;;;;5069045;28;20205;-67
2022/10/10 06:13:32;;;;;;;28.63;25.20;;;17.80;87.30;;;;;;5051981;28;20189;-66
2022/10/10 06:15:58;;;;;;;29.30;26.20;;;17.80;87.30;;;;;;5068482;28;20183;-67
2022/10/10 06:18:24;;;;;;;27.63;24.60;;;17.80;87.40;;;;;;5052316;28;20222;-66
2022/10/10 06:20:50;;;;;;;28.23;25.17;;;17.80;87.40;;;;;;5069269;28;20251;-67
2022/10/10 06:23:17;;;;;;;27.00;24.10;;;17.80;87.30;;;;;;5052055;28;20287;-66
2022/10/10 06:25:42;;;;;;;26.38;23.40;;;17.80;87.40;;;;;;5068991;28;20312;-67
2022/10/10 06:28:09;;;;;;;30.00;24.40;;;17.80;87.40;;;;;;5052111;28;20713;-67
2022/10/10 06:30:41;;;;;;;29.23;25.33;;;17.80;87.30;;;;;;5053331;28;20202;-67
2022/10/10 06:33:06;;;;;;;26.27;22.88;;;17.80;87.30;;;;;;5053313;28;20177;-67
2022/10/10 06:35:32;;;;;;;27.92;23.67;;;17.80;87.20;;;;;;5052142;28;20183;-67
2022/10/10 06:37:58;;;;;;;27.75;24.55;;;17.80;87.30;;;;;;5052464;28;20194;-66
2022/10/10 06:40:23;;;;;;;26.50;22.75;;;17.80;87.30;;;;;;5051908;28;20221;-66
2022/10/10 06:42:49;;;;;;;26.10;23.30;;;17.80;87.20;;;;;;5068746;28;20209;-66
2022/10/10 06:45:17;;;;;;;24.75;22.15;;;17.80;87.20;;;;;;5051558;28;20206;-67
2022/10/10 06:47:42;;;;;;;26.05;23.25;;;17.80;87.20;;;;;;5084220;28;20213;-66
2022/10/10 06:50:08;;;;;;;26.00;23.17;;;17.80;87.20;;;;;;5072965;28;20272;-67
2022/10/10 06:52:34;;;;;;;24.30;21.70;;;17.80;87.20;;;;;;5072046;28;20191;-66
2022/10/10 06:54:59;;;;;;;25.42;22.67;;;17.80;87.30;;;;;;5071577;28;20186;-67
2022/10/10 06:57:26;;;;;;;25.60;22.42;;;17.80;87.30;;;;;;5071775;28;20181;-67
2022/10/10 06:59:52;;;;;;;25.58;22.40;;;17.80;87.30;;;;;;5071479;28;20217;-67
2022/10/10 07:02:18;;;;;;;24.92;22.25;;;17.80;87.20;;;;;;5054906;28;20190;-67
2022/10/10 07:04:44;;;;;;;23.80;21.20;;;17.80;87.20;;;;;;5087961;28;20177;-67
2022/10/10 07:07:10;;;;;;;23.77;21.08;;;17.80;87.30;;;;;;5054430;28;20201;-65
2022/10/10 07:09:35;;;;;;;23.67;21.00;;;17.80;87.40;;;;;;5055175;28;20206;-67
2022/10/10 07:12:01;;;;;;;22.83;20.30;;;17.80;87.30;;;;;;5088738;28;20193;-66
2022/10/10 07:14:27;;;;;;;24.60;20.63;;;17.80;87.40;;;;;;5071472;28;20227;-66
2022/10/10 07:16:52;;;;;;;23.60;20.48;;;17.80;87.40;;;;;;5055025;28;20182;-66
2022/10/10 07:19:20;;;;;;;23.45;21.00;;;17.80;87.40;;;;;;5071355;28;20197;-67
2022/10/10 07:21:46;;;;;;;23.27;20.75;;;17.80;87.30;;;;;;5054644;28;20622;-67
2022/10/10 07:24:12;;;;;;;22.30;19.70;;;17.80;87.40;;;;;;5054347;28;20334;-67
2022/10/10 07:26:38;;;;;;;22.35;20.02;;;17.80;87.40;;;;;;5071604;28;20201;-66
2022/10/10 07:29:06;;;;;;;22.52;19.55;;;17.80;87.60;;;;;;5072147;28;20229;-67
2022/10/10 07:31:32;;;;;;;20.55;18.33;;;17.80;87.40;;;;;;5071072;28;20673;-67
2022/10/10 07:33:58;;;;;;;22.35;19.65;;;17.80;87.50;;;;;;5087874;28;20177;-67
2022/10/10 07:36:24;;;;;;;21.48;19.17;;;17.80;87.50;;;;;;5054623;28;20656;-67
2022/10/10 07:38:53;;;;;;;23.05;19.92;;;17.80;87.50;;;;;;5071124;28;20181;-66
2022/10/10 07:41:20;;;;;;;21.10;18.88;;;17.80;87.60;;;;;;5065752;28;20229;-67
2022/10/10 07:43:46;;;;;;;19.58;17.48;;;17.80;87.60;;;;;;5034174;28;20185;-67
2022/10/10 07:46:18;;;;;;;21.17;18.92;;;17.80;87.60;;;;;;5081029;28;20276;-67
2022/10/10 07:48:44;;;;;;;20.27;18.08;;;17.80;87.60;;;;;;5071198;28;20263;-66
2022/10/10 07:51:11;;;;;;;21.30;18.90;;;17.80;87.50;;;;;;5070682;28;20708;-65
2022/10/10 07:53:39;;;;;;;20.75;18.55;;;17.80;87.60;;;;;;5071676;28;20186;-67
2022/10/10 07:56:07;;;;;;;19.27;17.27;;;17.80;87.70;;;;;;5071043;28;20171;-66
2022/10/10 07:58:35;;;;;;;20.60;18.02;;;17.80;87.90;;;;;;5071065;28;20189;-67
2022/10/10 08:01:10;;;;;;;20.55;18.08;;;17.90;87.70;;;;;;5070831;28;20209;-66
2022/10/10 08:03:37;;;;;;;19.98;17.65;;;17.80;87.80;;;;;;5071207;28;20230;-65
2022/10/10 08:06:06;;;;;;;18.58;16.58;;;17.80;87.80;;;;;;5054303;28;20195;-67
2022/10/10 08:08:34;;;;;;;18.83;16.67;;;17.90;88.00;;;;;;5072039;28;20581;-67
2022/10/10 08:11:00;;;;;;;17.90;16.00;;;17.90;88.00;;;;;;5070682;28;20206;-65
2022/10/10 08:13:26;;;;;;;19.10;17.05;;;17.90;88.00;;;;;;5070430;28;20186;-67
2022/10/10 08:15:52;;;;;;;19.17;16.27;;;17.90;88.00;;;;;;5054063;28;20553;-66
2022/10/10 08:18:18;;;;;;;18.80;16.80;;;17.90;88.20;;;;;;5090892;28;20182;-67
2022/10/10 08:23:18;;;;;;;19.13;16.95;;;17.90;88.00;;;;;;5073131;28;20210;-71
2022/10/10 08:25:44;;;;;;;19.20;17.20;;;17.90;88.00;;;;;;5048125;28;20179;-71
2022/10/10 08:28:10;;;;;;;17.30;15.43;;;17.90;88.10;;;;;;5045613;28;20210;-70
2022/10/10 08:30:40;;;;;;;17.17;15.43;;;17.90;88.10;;;;;;5047234;28;20229;-71
2022/10/10 08:33:06;;;;;;;17.27;15.48;;;17.90;88.20;;;;;;5023229;28;20310;-69
2022/10/10 08:35:37;;;;;;;17.73;15.82;;;17.90;88.40;;;;;;5017684;28;20260;-71
2022/10/10 08:38:04;;;;;;;18.17;15.65;;;17.90;88.40;;;;;;5017760;28;20244;-71
2022/10/10 08:40:30;;;;;;;16.73;14.93;;;17.90;88.70;;;;;;5034980;28;20296;-69
2022/10/10 08:43:03;;;;;;;17.77;15.88;;;17.90;88.70;;;;;;5012872;28;20194;-71
2022/10/10 08:45:32;;;;;;;16.42;14.73;;;17.90;88.60;;;;;;5020683;28;20234;-71
2022/10/10 08:48:05;;;;;;;17.05;14.88;;;17.90;88.60;;;;;;5020226;28;20206;-71
2022/10/10 08:50:39;;;;;;;17.15;14.18;;;18.00;88.90;;;;;;5036979;28;20206;-71
2022/10/10 08:53:40;;;;;;;15.80;14.13;;;17.90;89.10;;;;;;5053656;28;20187;-71
2022/10/10 08:56:13;;;;;;;17.55;14.98;;;18.00;89.00;;;;;;5037048;28;20195;-71
2022/10/10 08:58:46;;;;;;;16.15;14.45;;;17.90;89.00;;;;;;5054799;28;20269;-71
2022/10/10 09:01:34;;;;;;;15.68;14.07;;;18.00;89.20;;;;;;5037128;28;20207;-69
2022/10/10 09:04:04;;;;;;;16.60;14.88;;;18.00;89.20;;;;;;5036517;28;20182;-71
2022/10/10 09:06:39;;;;;;;16.00;14.43;;;17.90;89.40;;;;;;5033314;28;20210;-71
2022/10/10 09:09:45;;;;;;;16.10;14.45;;;18.00;89.60;;;;;;5034405;28;20213;-71
2022/10/10 09:12:42;;;;;;;17.60;14.18;;;18.00;89.90;;;;;;5033591;28;20246;-71
2022/10/10 09:15:48;;;;;;;15.77;14.10;;;18.00;89.60;;;;;;4996182;28;20197;-71
2022/10/10 09:19:01;;;;;;;16.48;14.23;;;18.00;89.70;;;;;;5016737;28;20201;-71
2022/10/10 09:21:38;;;;;;;14.88;13.30;;;18.00;90.00;;;;;;4986686;28;20249;-71
2022/10/10 09:24:33;;;;;;;13.80;12.48;;;18.00;90.00;;;;;;5034640;28;20190;-71
2022/10/10 09:27:08;;;;;;;15.25;13.65;;;18.00;89.80;;;;;;5033204;28;20282;-71
2022/10/10 09:30:01;;;;;;;15.50;13.95;;;18.00;90.00;;;;;;5015461;28;20690;-71
2022/10/10 09:32:47;;;;;;;15.07;13.45;;;17.90;90.00;;;;;;5016440;28;20278;-71
2022/10/10 09:35:33;;;;;;;14.30;12.80;;;18.00;90.10;;;;;;5016357;28;20183;-71
2022/10/10 09:38:22;;;;;;;13.93;12.50;;;18.00;90.30;;;;;;5018814;28;20226;-71
2022/10/10 09:41:07;;;;;;;13.27;11.98;;;18.00;90.50;;;;;;5010279;28;20660;-71
2022/10/10 09:43:34;;;;;;;13.98;12.57;;;18.00;90.30;;;;;;5016121;28;20205;-69
2022/10/10 09:46:00;;;;;;;14.35;12.48;;;18.00;90.30;;;;;;5033678;28;20187;-71
2022/10/10 09:48:40;;;;;;;16.10;13.05;;;18.00;90.40;;;;;;5036001;28;20218;-71
2022/10/10 09:51:13;;;;;;;13.23;11.93;;;18.00;90.30;;;;;;5035906;28;20208;-71
2022/10/10 09:53:40;;;;;;;14.32;12.32;;;18.00;90.60;;;;;;5035772;28;20183;-71
2022/10/10 09:56:20;;;;;;;13.43;12.02;;;18.00;90.30;;;;;;5053627;28;20189;-72
2022/10/10 09:58:49;;;;;;;13.50;12.10;;;18.00;90.50;;;;;;5035909;28;20194;-71
2022/10/10 10:01:16;;;;;;;13.85;11.77;;;18.00;90.60;;;;;;5035999;28;20206;-71
2022/10/10 10:03:43;;;;;;;12.82;11.38;;;18.00;90.60;;;;;;5035635;28;20204;-71
2022/10/10 10:06:14;;;;;;;13.57;12.20;;;18.00;90.70;;;;;;5036711;28;20187;-71
2022/10/10 10:08:41;;;;;;;12.90;11.50;;;18.00;90.70;;;;;;5053295;28;20206;-71
2022/10/10 10:11:29;;;;;;;13.70;12.20;;;18.00;90.80;;;;;;5020339;28;20225;-71
2022/10/10 10:13:58;;;;;;;12.25;10.98;;;18.00;90.70;;;;;;5054808;28;20187;-71
2022/10/10 10:16:36;;;;;;;12.77;11.48;;;18.00;90.80;;;;;;5038053;28;20218;-70
2022/10/10 10:19:03;;;;;;;13.65;12.23;;;18.00;90.70;;;;;;5038219;28;20605;-72
2022/10/10 10:21:29;;;;;;;13.27;11.82;;;18.00;90.80;;;;;;5035942;28;20214;-70
2022/10/10 10:24:21;;;;;;;12.60;11.30;;;18.00;90.80;;;;;;5035738;28;20191;-71
2022/10/10 10:26:50;;;;;;;12.18;10.77;;;18.00;90.90;;;;;;5035900;28;20186;-71
2022/10/10 10:29:32;;;;;;;13.00;11.68;;;18.00;91.10;;;;;;5035691;28;20211;-71
2022/10/10 10:32:31;;;;;;;12.05;10.85;;;18.00;90.90;;;;;;5031891;28;20584;-70
2022/10/10 10:35:19;;;;;;;11.88;10.63;;;18.00;90.90;;;;;;5015738;28;20647;-70
2022/10/10 10:38:17;;;;;;;12.27;10.73;;;18.00;91.00;;;;;;5015909;28;20187;-70
2022/10/10 10:41:28;;;;;;;12.57;11.32;;;18.00;91.00;;;;;;5000469;28;20306;-70
2022/10/10 10:44:23;;;;;;;11.55;10.35;;;18.00;91.10;;;;;;5032085;28;20198;-70
2022/10/10 10:47:12;;;;;;;11.18;9.77;;;18.00;91.10;;;;;;5016345;28;20183;-69
2022/10/10 10:50:06;;;;;;;12.07;10.77;;;18.00;91.10;;;;;;4999467;28;20207;-71
2022/10/10 10:52:59;;;;;;;11.52;10.32;;;18.10;91.30;;;;;;5034400;28;20184;-71
2022/10/10 10:55:54;;;;;;;10.88;9.63;;;18.00;91.10;;;;;;5000484;28;20186;-71
2022/10/10 10:58:53;;;;;;;11.80;10.35;;;18.00;91.40;;;;;;5027204;28;20209;-70
2022/10/10 11:01:25;;;;;;;10.90;9.57;;;18.00;91.30;;;;;;5052892;28;20198;-70
2022/10/10 11:04:51;;;;;;;11.30;9.60;;;18.00;91.50;;;;;;5046795;28;20304;-71
2022/10/10 11:07:25;;;;;;;10.40;9.40;;;18.00;91.60;;;;;;4992386;28;20203;-71
2022/10/10 11:10:21;;;;;;;11.40;10.20;;;18.10;91.70;;;;;;5010012;28;20295;-71
2022/10/10 11:12:55;;;;;;;10.90;9.80;;;18.10;91.50;;;;;;5016764;28;20180;-70
2022/10/10 11:15:40;;;;;;;11.20;10.05;;;18.10;91.40;;;;;;5034548;28;20178;-70
2022/10/10 11:18:17;;;;;;;10.57;9.55;;;18.10;91.40;;;;;;5035059;28;20610;-71
2022/10/10 11:20:54;;;;;;;11.00;8.70;;;18.10;91.60;;;;;;5031672;28;20207;-71
2022/10/10 11:23:48;;;;;;;11.20;10.07;;;18.10;91.70;;;;;;5045818;28;20178;-71
2022/10/10 11:26:27;;;;;;;10.38;9.27;;;18.10;91.70;;;;;;5025285;28;20186;-70
2022/10/10 11:29:20;;;;;;;9.93;8.93;;;18.10;91.50;;;;;;5021791;28;20234;-71
2022/10/10 11:32:16;;;;;;;10.65;9.55;;;18.10;91.50;;;;;;5030045;28;20210;-71
2022/10/10 11:34:54;;;;;;;11.65;9.50;;;18.10;92.00;;;;;;5034465;28;20163;-69
2022/10/10 11:37:26;;;;;;;10.32;9.23;;;18.10;91.70;;;;;;5052298;28;20189;-71
2022/10/10 11:40:02;;;;;;;10.23;8.68;;;18.10;91.70;;;;;;5016464;28;20186;-71
2022/10/10 11:42:45;;;;;;;10.38;8.95;;;18.10;91.70;;;;;;5034438;28;20565;-70
2022/10/10 11:45:22;;;;;;;9.60;8.43;;;18.00;91.60;;;;;;5050524;28;20193;-71
2022/10/10 11:48:14;;;;;;;10.75;9.15;;;18.10;91.80;;;;;;5051693;28;20182;-72
2022/10/10 11:50:43;;;;;;;10.95;9.02;;;18.10;91.80;;;;;;5033925;28;20210;-70
2022/10/10 11:53:41;;;;;;;9.60;8.55;;;18.10;91.70;;;;;;5033252;28;20179;-71
2022/10/10 11:56:38;;;;;;;8.93;8.02;;;18.10;92.20;;;;;;5017134;28;20187;-71
2022/10/10 11:59:27;;;;;;;9.57;8.55;;;18.10;92.00;;;;;;5017379;28;20285;-71
2022/10/10 12:01:59;;;;;;;9.63;8.52;;;18.10;92.10;;;;;;5017229;28;20700;-72
2022/10/10 12:04:34;;;;;;;10.25;8.52;;;18.10;92.00;;;;;;5017212;28;20236;-72
2022/10/10 12:07:15;;;;;;;10.70;8.57;;;18.10;92.00;;;;;;5051476;28;20188;-70
2022/10/10 12:10:09;;;;;;;9.30;8.40;;;18.10;92.00;;;;;;5034156;28;20340;-71
2022/10/10 12:12:43;;;;;;;8.88;7.45;;;18.10;92.00;;;;;;5033709;28;20206;-71
2022/10/10 12:15:24;;;;;;;9.23;8.27;;;18.10;92.10;;;;;;5034105;28;20645;-71
2022/10/10 12:17:50;;;;;;;8.40;7.45;;;18.10;91.90;;;;;;5034244;28;20277;-71
2022/10/10 12:20:19;;;;;;;9.07;7.80;;;18.10;92.00;;;;;;5034040;28;20669;-71
2022/10/10 12:23:25;;;;;;;8.82;7.47;;;18.10;92.20;;;;;;5034280;28;20199;-71
2022/10/10 12:25:50;;;;;;;9.40;7.72;;;18.10;92.00;;;;;;5016464;28;20281;-71
2022/10/10 12:28:17;;;;;;;9.18;8.27;;;18.10;91.80;;;;;;4998240;28;20298;-71
2022/10/10 12:30:54;;;;;;;10.52;7.93;;;18.10;91.80;;;;;;5014304;28;20636;-71
2022/10/10 12:33:32;;;;;;;8.90;7.63;;;18.10;92.10;;;;;;5014464;28;20191;-71
2022/10/10 12:36:17;;;;;;;10.77;8.35;;;18.10;92.20;;;;;;5014139;28;20647;-70
2022/10/10 12:39:17;;;;;;;8.38;7.57;;;18.10;92.10;;;;;;4997753;28;20278;-71
2022/10/10 12:41:49;;;;;;;7.95;7.15;;;18.10;92.30;;;;;;5014044;28;20211;-71
2022/10/10 12:44:33;;;;;;;8.52;7.63;;;18.10;92.30;;;;;;5014117;28;20222;-71
2022/10/10 12:47:29;;;;;;;8.82;7.68;;;18.10;92.30;;;;;;4997686;28;20190;-71
2022/10/10 12:49:59;;;;;;;8.07;6.72;;;18.10;92.30;;;;;;5031705;28;20205;-70
2022/10/10 12:52:48;;;;;;;7.85;7.05;;;18.10;92.50;;;;;;5014048;28;20199;-70
2022/10/10 12:55:27;;;;;;;7.38;6.68;;;18.10;92.50;;;;;;5014273;28;20191;-71
2022/10/10 12:58:06;;;;;;;10.10;7.70;;;18.10;92.60;;;;;;4997816;28;20191;-71
2022/10/10 13:00:41;;;;;;;8.07;7.30;;;18.20;92.60;;;;;;5013968;28;20202;-71